sensor_id;sensor_type;location;lat;lon;timestamp;P1;durP1;ratioP1;P2;durP2;ratioP2
20283;SDS011;10301;50.832;4.080;2023-02-01T00:01:34;27.33;;;13.20;;
20283;SDS011;10301;50.832;4.080;2023-02-01T00:04:00;34.33;;;12.63;;
20283;SDS011;10301;50.832;4.080;2023-02-01T00:06:26;34.77;;;12.10;;
20283;SDS011;10301;50.832;4.080;2023-02-01T00:08:52;29.37;;;12.03;;
20283;SDS011;10301;50.832;4.080;2023-02-01T00:11:19;32.83;;;12.63;;
20283;SDS011;10301;50.832;4.080;2023-02-01T00:13:45;32.13;;;12.13;;
20283;SDS011;10301;50.832;4.080;2023-02-01T00:16:12;32.80;;;12.33;;
20283;SDS011;10301;50.832;4.080;2023-02-01T00:18:43;32.37;;;11.87;;
20283;SDS011;10301;50.832;4.080;2023-02-01T00:21:13;29.80;;;12.17;;
20283;SDS011;10301;50.832;4.080;2023-02-01T00:23:40;32.50;;;11.23;;
20283;SDS011;10301;50.832;4.080;2023-02-01T00:26:07;34.20;;;11.90;;
20283;SDS011;10301;50.832;4.080;2023-02-01T00:28:36;23.27;;;10.17;;
20283;SDS011;10301;50.832;4.080;2023-02-01T00:31:02;29.10;;;9.87;;
20283;SDS011;10301;50.832;4.080;2023-02-01T00:33:29;24.57;;;9.27;;
20283;SDS011;10301;50.832;4.080;2023-02-01T00:36:05;25.30;;;9.87;;
20283;SDS011;10301;50.832;4.080;2023-02-01T00:38:33;23.93;;;9.27;;
20283;SDS011;10301;50.832;4.080;2023-02-01T00:41:02;23.63;;;8.83;;
20283;SDS011;10301;50.832;4.080;2023-02-01T00:43:33;23.30;;;9.00;;
20283;SDS011;10301;50.832;4.080;2023-02-01T00:45:59;24.83;;;8.80;;
20283;SDS011;10301;50.832;4.080;2023-02-01T00:48:25;25.90;;;8.43;;
20283;SDS011;10301;50.832;4.080;2023-02-01T00:50:51;28.30;;;8.70;;
20283;SDS011;10301;50.832;4.080;2023-02-01T00:53:18;21.57;;;8.07;;
20283;SDS011;10301;50.832;4.080;2023-02-01T00:55:44;27.57;;;7.27;;
20283;SDS011;10301;50.832;4.080;2023-02-01T00:58:11;22.50;;;7.20;;
20283;SDS011;10301;50.832;4.080;2023-02-01T01:00:37;23.60;;;6.50;;
20283;SDS011;10301;50.832;4.080;2023-02-01T01:03:02;20.37;;;5.83;;
20283;SDS011;10301;50.832;4.080;2023-02-01T01:05:42;23.77;;;5.67;;
20283;SDS011;10301;50.832;4.080;2023-02-01T01:08:12;22.70;;;5.43;;
20283;SDS011;10301;50.832;4.080;2023-02-01T01:10:38;19.50;;;4.77;;
20283;SDS011;10301;50.832;4.080;2023-02-01T01:13:04;18.60;;;4.87;;
20283;SDS011;10301;50.832;4.080;2023-02-01T01:15:30;22.37;;;4.47;;
20283;SDS011;10301;50.832;4.080;2023-02-01T01:17:55;20.87;;;4.83;;
20283;SDS011;10301;50.832;4.080;2023-02-01T01:20:21;18.40;;;5.23;;
20283;SDS011;10301;50.832;4.080;2023-02-01T01:22:47;20.13;;;4.67;;
20283;SDS011;10301;50.832;4.080;2023-02-01T01:25:13;21.20;;;4.27;;
20283;SDS011;10301;50.832;4.080;2023-02-01T01:27:39;17.73;;;4.57;;
20283;SDS011;10301;50.832;4.080;2023-02-01T01:30:05;24.67;;;3.90;;
20283;SDS011;10301;50.832;4.080;2023-02-01T01:32:31;20.40;;;4.37;;
20283;SDS011;10301;50.832;4.080;2023-02-01T01:34:56;17.93;;;4.23;;
20283;SDS011;10301;50.832;4.080;2023-02-01T01:37:22;23.23;;;4.67;;
20283;SDS011;10301;50.832;4.080;2023-02-01T01:39:48;18.20;;;4.80;;
20283;SDS011;10301;50.832;4.080;2023-02-01T01:42:13;16.73;;;4.03;;
20283;SDS011;10301;50.832;4.080;2023-02-01T01:47:39;22.17;;;4.87;;
20283;SDS011;10301;50.832;4.080;2023-02-01T01:50:10;17.20;;;4.17;;
20283;SDS011;10301;50.832;4.080;2023-02-01T01:52:40;22.07;;;4.60;;
20283;SDS011;10301;50.832;4.080;2023-02-01T01:55:08;22.17;;;4.30;;
20283;SDS011;10301;50.832;4.080;2023-02-01T01:57:36;16.13;;;4.10;;
20283;SDS011;10301;50.832;4.080;2023-02-01T02:00:06;21.00;;;4.40;;
20283;SDS011;10301;50.832;4.080;2023-02-01T02:02:34;18.63;;;4.27;;
20283;SDS011;10301;50.832;4.080;2023-02-01T02:05:02;19.37;;;3.97;;
20283;SDS011;10301;50.832;4.080;2023-02-01T02:07:30;21.70;;;4.33;;
20283;SDS011;10301;50.832;4.080;2023-02-01T02:09:59;27.03;;;4.77;;
20283;SDS011;10301;50.832;4.080;2023-02-01T02:12:26;13.77;;;4.23;;
20283;SDS011;10301;50.832;4.080;2023-02-01T02:14:52;18.63;;;4.23;;
20283;SDS011;10301;50.832;4.080;2023-02-01T02:39:07;21.50;;;4.13;;
20283;SDS011;10301;50.832;4.080;2023-02-01T02:44:57;15.97;;;3.40;;
20283;SDS011;10301;50.832;4.080;2023-02-01T02:50:46;23.37;;;3.73;;
20283;SDS011;10301;50.832;4.080;2023-02-01T02:56:44;19.10;;;3.87;;
20283;SDS011;10301;50.832;4.080;2023-02-01T02:59:28;12.00;;;3.20;;
20283;SDS011;10301;50.832;4.080;2023-02-01T03:02:14;19.93;;;4.27;;
20283;SDS011;10301;50.832;4.080;2023-02-01T03:04:59;16.90;;;3.10;;
20283;SDS011;10301;50.832;4.080;2023-02-01T03:13:10;19.27;;;4.30;;
20283;SDS011;10301;50.832;4.080;2023-02-01T03:18:16;20.20;;;4.03;;
20283;SDS011;10301;50.832;4.080;2023-02-01T03:20:49;18.50;;;3.33;;
20283;SDS011;10301;50.832;4.080;2023-02-01T03:23:19;18.80;;;3.33;;
20283;SDS011;10301;50.832;4.080;2023-02-01T03:25:48;16.50;;;3.57;;
20283;SDS011;10301;50.832;4.080;2023-02-01T03:28:16;17.30;;;3.70;;
20283;SDS011;10301;50.832;4.080;2023-02-01T03:30:46;18.37;;;3.43;;
20283;SDS011;10301;50.832;4.080;2023-02-01T03:33:15;19.80;;;3.60;;
20283;SDS011;10301;50.832;4.080;2023-02-01T03:46:49;11.13;;;3.73;;
20283;SDS011;10301;50.832;4.080;2023-02-01T03:49:34;31.97;;;5.97;;
20283;SDS011;10301;50.832;4.080;2023-02-01T03:52:02;23.93;;;5.93;;
20283;SDS011;10301;50.832;4.080;2023-02-01T03:54:30;19.13;;;4.07;;
20283;SDS011;10301;50.832;4.080;2023-02-01T03:56:57;18.80;;;3.43;;
20283;SDS011;10301;50.832;4.080;2023-02-01T03:59:26;24.30;;;3.87;;
20283;SDS011;10301;50.832;4.080;2023-02-01T04:01:52;20.47;;;3.80;;
20283;SDS011;10301;50.832;4.080;2023-02-01T04:04:18;24.17;;;4.37;;
20283;SDS011;10301;50.832;4.080;2023-02-01T04:06:47;15.23;;;3.77;;
20283;SDS011;10301;50.832;4.080;2023-02-01T04:09:16;19.33;;;4.10;;
20283;SDS011;10301;50.832;4.080;2023-02-01T04:11:43;22.70;;;3.80;;
20283;SDS011;10301;50.832;4.080;2023-02-01T04:14:08;16.80;;;3.37;;
20283;SDS011;10301;50.832;4.080;2023-02-01T04:16:34;18.40;;;3.57;;
20283;SDS011;10301;50.832;4.080;2023-02-01T04:19:00;14.60;;;3.13;;
20283;SDS011;10301;50.832;4.080;2023-02-01T04:21:26;21.63;;;3.87;;
20283;SDS011;10301;50.832;4.080;2023-02-01T04:23:53;13.73;;;3.00;;
20283;SDS011;10301;50.832;4.080;2023-02-01T04:26:19;16.03;;;3.17;;
20283;SDS011;10301;50.832;4.080;2023-02-01T04:28:46;16.77;;;2.97;;
20283;SDS011;10301;50.832;4.080;2023-02-01T04:31:15;20.40;;;3.83;;
20283;SDS011;10301;50.832;4.080;2023-02-01T04:33:42;24.47;;;3.20;;
20283;SDS011;10301;50.832;4.080;2023-02-01T04:36:08;15.80;;;3.70;;
20283;SDS011;10301;50.832;4.080;2023-02-01T04:38:34;23.70;;;3.70;;
20283;SDS011;10301;50.832;4.080;2023-02-01T04:41:00;18.50;;;3.33;;
20283;SDS011;10301;50.832;4.080;2023-02-01T04:43:26;22.90;;;3.73;;
20283;SDS011;10301;50.832;4.080;2023-02-01T04:45:52;16.47;;;3.50;;
20283;SDS011;10301;50.832;4.080;2023-02-01T04:48:19;15.80;;;3.53;;
20283;SDS011;10301;50.832;4.080;2023-02-01T04:50:45;13.73;;;3.37;;
20283;SDS011;10301;50.832;4.080;2023-02-01T04:53:13;16.37;;;3.53;;
20283;SDS011;10301;50.832;4.080;2023-02-01T04:55:40;19.33;;;4.07;;
20283;SDS011;10301;50.832;4.080;2023-02-01T04:58:06;18.83;;;3.70;;
20283;SDS011;10301;50.832;4.080;2023-02-01T05:00:31;18.97;;;3.43;;
20283;SDS011;10301;50.832;4.080;2023-02-01T05:02:57;20.13;;;3.60;;
20283;SDS011;10301;50.832;4.080;2023-02-01T05:05:23;16.43;;;3.17;;
20283;SDS011;10301;50.832;4.080;2023-02-01T05:07:49;17.07;;;3.30;;
20283;SDS011;10301;50.832;4.080;2023-02-01T05:10:14;20.77;;;3.17;;
20283;SDS011;10301;50.832;4.080;2023-02-01T05:12:42;18.33;;;3.17;;
20283;SDS011;10301;50.832;4.080;2023-02-01T05:15:27;14.37;;;2.93;;
20283;SDS011;10301;50.832;4.080;2023-02-01T05:17:53;20.27;;;3.47;;
20283;SDS011;10301;50.832;4.080;2023-02-01T05:20:19;22.10;;;3.63;;
20283;SDS011;10301;50.832;4.080;2023-02-01T05:22:44;19.57;;;3.43;;
20283;SDS011;10301;50.832;4.080;2023-02-01T05:25:10;17.13;;;3.37;;
20283;SDS011;10301;50.832;4.080;2023-02-01T05:27:36;19.60;;;4.17;;
20283;SDS011;10301;50.832;4.080;2023-02-01T05:30:05;16.73;;;3.07;;
20283;SDS011;10301;50.832;4.080;2023-02-01T05:32:31;17.83;;;3.40;;
20283;SDS011;10301;50.832;4.080;2023-02-01T05:34:57;18.00;;;3.13;;
20283;SDS011;10301;50.832;4.080;2023-02-01T05:37:23;20.17;;;3.77;;
20283;SDS011;10301;50.832;4.080;2023-02-01T05:39:48;18.70;;;3.53;;
20283;SDS011;10301;50.832;4.080;2023-02-01T05:42:14;22.10;;;4.40;;
20283;SDS011;10301;50.832;4.080;2023-02-01T05:44:40;12.77;;;3.60;;
20283;SDS011;10301;50.832;4.080;2023-02-01T05:47:06;20.63;;;3.60;;
20283;SDS011;10301;50.832;4.080;2023-02-01T05:49:31;19.37;;;3.47;;
20283;SDS011;10301;50.832;4.080;2023-02-01T05:51:57;21.23;;;3.93;;
20283;SDS011;10301;50.832;4.080;2023-02-01T05:54:23;16.17;;;3.10;;
20283;SDS011;10301;50.832;4.080;2023-02-01T05:56:48;22.90;;;3.33;;
20283;SDS011;10301;50.832;4.080;2023-02-01T05:59:14;20.53;;;3.67;;
20283;SDS011;10301;50.832;4.080;2023-02-01T06:01:40;23.53;;;3.33;;
20283;SDS011;10301;50.832;4.080;2023-02-01T06:04:05;21.93;;;3.90;;
20283;SDS011;10301;50.832;4.080;2023-02-01T06:06:31;21.37;;;4.60;;
20283;SDS011;10301;50.832;4.080;2023-02-01T06:08:56;20.17;;;3.97;;
20283;SDS011;10301;50.832;4.080;2023-02-01T06:11:22;14.57;;;3.30;;
20283;SDS011;10301;50.832;4.080;2023-02-01T06:13:48;19.70;;;3.70;;
20283;SDS011;10301;50.832;4.080;2023-02-01T06:16:14;15.83;;;3.30;;
20283;SDS011;10301;50.832;4.080;2023-02-01T06:18:40;20.20;;;4.60;;
20283;SDS011;10301;50.832;4.080;2023-02-01T06:21:06;17.70;;;4.00;;
20283;SDS011;10301;50.832;4.080;2023-02-01T06:23:32;21.27;;;3.20;;
20283;SDS011;10301;50.832;4.080;2023-02-01T06:25:59;19.33;;;3.97;;
20283;SDS011;10301;50.832;4.080;2023-02-01T06:28:26;23.97;;;3.83;;
20283;SDS011;10301;50.832;4.080;2023-02-01T06:30:53;22.70;;;3.70;;
20283;SDS011;10301;50.832;4.080;2023-02-01T06:33:19;22.70;;;3.50;;
20283;SDS011;10301;50.832;4.080;2023-02-01T06:35:45;20.27;;;3.97;;
20283;SDS011;10301;50.832;4.080;2023-02-01T06:38:12;19.37;;;4.87;;
20283;SDS011;10301;50.832;4.080;2023-02-01T06:40:39;18.07;;;3.63;;
20283;SDS011;10301;50.832;4.080;2023-02-01T06:43:07;22.17;;;4.03;;
20283;SDS011;10301;50.832;4.080;2023-02-01T06:45:33;20.57;;;3.70;;
20283;SDS011;10301;50.832;4.080;2023-02-01T06:47:59;18.60;;;3.30;;
20283;SDS011;10301;50.832;4.080;2023-02-01T06:50:25;19.30;;;3.97;;
20283;SDS011;10301;50.832;4.080;2023-02-01T06:52:52;20.40;;;4.43;;
20283;SDS011;10301;50.832;4.080;2023-02-01T06:55:17;19.43;;;4.37;;
20283;SDS011;10301;50.832;4.080;2023-02-01T06:57:43;22.17;;;3.93;;
20283;SDS011;10301;50.832;4.080;2023-02-01T07:00:09;22.63;;;4.20;;
20283;SDS011;10301;50.832;4.080;2023-02-01T07:02:35;19.67;;;3.60;;
20283;SDS011;10301;50.832;4.080;2023-02-01T07:05:00;20.47;;;4.47;;
20283;SDS011;10301;50.832;4.080;2023-02-01T07:07:26;21.93;;;4.67;;
20283;SDS011;10301;50.832;4.080;2023-02-01T07:09:51;22.33;;;3.90;;
20283;SDS011;10301;50.832;4.080;2023-02-01T07:12:18;21.67;;;4.87;;
20283;SDS011;10301;50.832;4.080;2023-02-01T07:14:44;22.17;;;4.20;;
20283;SDS011;10301;50.832;4.080;2023-02-01T07:17:09;18.03;;;4.17;;
20283;SDS011;10301;50.832;4.080;2023-02-01T07:19:35;29.07;;;5.20;;
20283;SDS011;10301;50.832;4.080;2023-02-01T07:22:01;22.20;;;4.03;;
20283;SDS011;10301;50.832;4.080;2023-02-01T07:24:26;18.53;;;4.57;;
20283;SDS011;10301;50.832;4.080;2023-02-01T07:26:52;21.90;;;3.57;;
20283;SDS011;10301;50.832;4.080;2023-02-01T07:29:18;14.47;;;3.60;;
20283;SDS011;10301;50.832;4.080;2023-02-01T07:31:44;24.80;;;4.77;;
20283;SDS011;10301;50.832;4.080;2023-02-01T07:34:10;27.07;;;4.37;;
20283;SDS011;10301;50.832;4.080;2023-02-01T07:36:35;23.93;;;3.90;;
20283;SDS011;10301;50.832;4.080;2023-02-01T07:39:02;18.43;;;4.80;;
20283;SDS011;10301;50.832;4.080;2023-02-01T07:41:28;28.33;;;5.00;;
20283;SDS011;10301;50.832;4.080;2023-02-01T07:43:54;23.23;;;5.43;;
20283;SDS011;10301;50.832;4.080;2023-02-01T07:46:20;22.23;;;5.00;;
20283;SDS011;10301;50.832;4.080;2023-02-01T07:48:45;18.33;;;4.83;;
20283;SDS011;10301;50.832;4.080;2023-02-01T07:51:12;23.23;;;5.10;;
20283;SDS011;10301;50.832;4.080;2023-02-01T07:53:40;23.03;;;5.37;;
20283;SDS011;10301;50.832;4.080;2023-02-01T07:56:13;17.23;;;4.43;;
20283;SDS011;10301;50.832;4.080;2023-02-01T07:58:40;27.37;;;4.67;;
20283;SDS011;10301;50.832;4.080;2023-02-01T08:01:11;20.87;;;4.60;;
20283;SDS011;10301;50.832;4.080;2023-02-01T08:03:45;21.23;;;5.10;;
20283;SDS011;10301;50.832;4.080;2023-02-01T08:06:14;24.00;;;5.47;;
20283;SDS011;10301;50.832;4.080;2023-02-01T08:08:39;25.70;;;5.60;;
20283;SDS011;10301;50.832;4.080;2023-02-01T08:11:06;19.57;;;4.50;;
20283;SDS011;10301;50.832;4.080;2023-02-01T08:13:35;22.63;;;4.93;;
20283;SDS011;10301;50.832;4.080;2023-02-01T08:16:01;21.17;;;4.23;;
20283;SDS011;10301;50.832;4.080;2023-02-01T08:18:30;14.80;;;3.50;;
20283;SDS011;10301;50.832;4.080;2023-02-01T08:20:56;22.80;;;4.10;;
20283;SDS011;10301;50.832;4.080;2023-02-01T08:23:27;15.67;;;3.07;;
20283;SDS011;10301;50.832;4.080;2023-02-01T08:25:52;13.60;;;3.90;;
20283;SDS011;10301;50.832;4.080;2023-02-01T08:28:18;23.40;;;3.60;;
20283;SDS011;10301;50.832;4.080;2023-02-01T08:30:43;15.87;;;3.40;;
20283;SDS011;10301;50.832;4.080;2023-02-01T08:33:10;15.10;;;3.30;;
20283;SDS011;10301;50.832;4.080;2023-02-01T08:35:36;25.13;;;4.10;;
20283;SDS011;10301;50.832;4.080;2023-02-01T08:38:03;20.40;;;3.30;;
20283;SDS011;10301;50.832;4.080;2023-02-01T08:40:30;15.50;;;3.27;;
20283;SDS011;10301;50.832;4.080;2023-02-01T08:42:56;20.73;;;3.53;;
20283;SDS011;10301;50.832;4.080;2023-02-01T08:45:24;13.53;;;3.80;;
20283;SDS011;10301;50.832;4.080;2023-02-01T08:47:52;16.63;;;3.63;;
20283;SDS011;10301;50.832;4.080;2023-02-01T08:50:18;21.10;;;4.27;;
20283;SDS011;10301;50.832;4.080;2023-02-01T08:52:45;22.53;;;4.27;;
20283;SDS011;10301;50.832;4.080;2023-02-01T08:55:11;20.03;;;3.73;;
20283;SDS011;10301;50.832;4.080;2023-02-01T08:57:38;21.47;;;3.50;;
20283;SDS011;10301;50.832;4.080;2023-02-01T09:00:05;14.57;;;3.23;;
20283;SDS011;10301;50.832;4.080;2023-02-01T09:02:34;24.50;;;3.27;;
20283;SDS011;10301;50.832;4.080;2023-02-01T09:05:00;18.60;;;3.73;;
20283;SDS011;10301;50.832;4.080;2023-02-01T09:07:26;16.77;;;3.60;;
20283;SDS011;10301;50.832;4.080;2023-02-01T09:09:52;14.77;;;3.37;;
20283;SDS011;10301;50.832;4.080;2023-02-01T09:12:19;23.77;;;3.60;;
20283;SDS011;10301;50.832;4.080;2023-02-01T09:14:45;19.17;;;3.43;;
20283;SDS011;10301;50.832;4.080;2023-02-01T09:17:11;21.47;;;3.77;;
20283;SDS011;10301;50.832;4.080;2023-02-01T09:19:38;16.27;;;3.23;;
20283;SDS011;10301;50.832;4.080;2023-02-01T09:22:04;13.87;;;3.30;;
20283;SDS011;10301;50.832;4.080;2023-02-01T09:24:30;20.33;;;3.33;;
20283;SDS011;10301;50.832;4.080;2023-02-01T09:26:55;17.70;;;3.53;;
20283;SDS011;10301;50.832;4.080;2023-02-01T09:29:21;15.17;;;3.27;;
20283;SDS011;10301;50.832;4.080;2023-02-01T09:31:47;17.47;;;2.93;;
20283;SDS011;10301;50.832;4.080;2023-02-01T09:34:12;17.20;;;3.27;;
20283;SDS011;10301;50.832;4.080;2023-02-01T09:36:38;14.60;;;3.67;;
20283;SDS011;10301;50.832;4.080;2023-02-01T09:39:04;24.43;;;4.03;;
20283;SDS011;10301;50.832;4.080;2023-02-01T09:46:58;22.70;;;3.77;;
20283;SDS011;10301;50.832;4.080;2023-02-01T09:49:30;20.97;;;3.13;;
20283;SDS011;10301;50.832;4.080;2023-02-01T09:51:59;16.60;;;4.27;;
20283;SDS011;10301;50.832;4.080;2023-02-01T09:54:32;22.63;;;4.07;;
20283;SDS011;10301;50.832;4.080;2023-02-01T09:57:12;18.93;;;3.63;;
20283;SDS011;10301;50.832;4.080;2023-02-01T09:59:44;13.93;;;2.97;;
20283;SDS011;10301;50.832;4.080;2023-02-01T10:02:16;20.73;;;3.73;;
20283;SDS011;10301;50.832;4.080;2023-02-01T10:04:46;17.93;;;4.03;;
20283;SDS011;10301;50.832;4.080;2023-02-01T10:07:34;12.90;;;3.50;;
20283;SDS011;10301;50.832;4.080;2023-02-01T10:12:55;15.77;;;3.17;;
20283;SDS011;10301;50.832;4.080;2023-02-01T10:15:40;13.97;;;3.63;;
20283;SDS011;10301;50.832;4.080;2023-02-01T10:26:44;19.10;;;3.53;;
20283;SDS011;10301;50.832;4.080;2023-02-01T10:29:18;18.43;;;3.80;;
20283;SDS011;10301;50.832;4.080;2023-02-01T10:31:45;20.63;;;6.20;;
20283;SDS011;10301;50.832;4.080;2023-02-01T10:36:50;16.57;;;4.50;;
20283;SDS011;10301;50.832;4.080;2023-02-01T10:39:22;20.07;;;3.00;;
20283;SDS011;10301;50.832;4.080;2023-02-01T10:41:48;16.23;;;3.00;;
20283;SDS011;10301;50.832;4.080;2023-02-01T10:44:35;21.30;;;3.10;;
20283;SDS011;10301;50.832;4.080;2023-02-01T10:47:02;16.47;;;2.90;;
20283;SDS011;10301;50.832;4.080;2023-02-01T10:49:36;14.93;;;3.13;;
20283;SDS011;10301;50.832;4.080;2023-02-01T10:52:12;14.10;;;2.60;;
20283;SDS011;10301;50.832;4.080;2023-02-01T10:54:55;19.70;;;3.17;;
20283;SDS011;10301;50.832;4.080;2023-02-01T10:57:24;18.03;;;3.07;;
20283;SDS011;10301;50.832;4.080;2023-02-01T10:59:51;18.27;;;2.80;;
20283;SDS011;10301;50.832;4.080;2023-02-01T11:02:31;15.27;;;3.10;;
20283;SDS011;10301;50.832;4.080;2023-02-01T11:07:29;18.53;;;2.83;;
20283;SDS011;10301;50.832;4.080;2023-02-01T11:09:57;17.33;;;2.90;;
20283;SDS011;10301;50.832;4.080;2023-02-01T11:15:01;15.27;;;2.83;;
20283;SDS011;10301;50.832;4.080;2023-02-01T11:17:29;15.10;;;2.57;;
20283;SDS011;10301;50.832;4.080;2023-02-01T11:20:00;13.17;;;2.97;;
20283;SDS011;10301;50.832;4.080;2023-02-01T11:22:31;14.63;;;2.30;;
20283;SDS011;10301;50.832;4.080;2023-02-01T11:24:58;16.60;;;2.90;;
20283;SDS011;10301;50.832;4.080;2023-02-01T11:27:26;14.27;;;2.60;;
20283;SDS011;10301;50.832;4.080;2023-02-01T11:29:53;9.07;;;2.33;;
20283;SDS011;10301;50.832;4.080;2023-02-01T11:32:23;17.90;;;2.93;;
20283;SDS011;10301;50.832;4.080;2023-02-01T11:34:54;21.10;;;3.27;;
20283;SDS011;10301;50.832;4.080;2023-02-01T11:40:02;14.53;;;2.70;;
20283;SDS011;10301;50.832;4.080;2023-02-01T11:45:32;10.93;;;2.47;;
20283;SDS011;10301;50.832;4.080;2023-02-01T11:47:59;16.97;;;2.53;;
20283;SDS011;10301;50.832;4.080;2023-02-01T11:50:46;17.03;;;2.70;;
20283;SDS011;10301;50.832;4.080;2023-02-01T11:56:25;11.27;;;2.43;;
20283;SDS011;10301;50.832;4.080;2023-02-01T12:04:48;9.93;;;2.10;;
20283;SDS011;10301;50.832;4.080;2023-02-01T12:10:20;12.43;;;2.57;;
20283;SDS011;10301;50.832;4.080;2023-02-01T12:21:34;10.90;;;1.77;;
20283;SDS011;10301;50.832;4.080;2023-02-01T12:27:51;9.57;;;1.60;;
20283;SDS011;10301;50.832;4.080;2023-02-01T12:30:16;7.77;;;1.87;;
20283;SDS011;10301;50.832;4.080;2023-02-01T12:33:07;12.90;;;2.17;;
20283;SDS011;10301;50.832;4.080;2023-02-01T12:47:04;10.43;;;1.83;;
20283;SDS011;10301;50.832;4.080;2023-02-01T12:49:53;10.70;;;1.77;;
20283;SDS011;10301;50.832;4.080;2023-02-01T12:52:32;14.37;;;1.77;;
20283;SDS011;10301;50.832;4.080;2023-02-01T12:57:54;15.18;;;2.30;;
20283;SDS011;10301;50.832;4.080;2023-02-01T13:00:34;12.60;;;2.15;;
20283;SDS011;10301;50.832;4.080;2023-02-01T13:03:12;13.55;;;1.58;;
20283;SDS011;10301;50.832;4.080;2023-02-01T13:06:05;15.33;;;2.00;;
20283;SDS011;10301;50.832;4.080;2023-02-01T13:08:48;11.00;;;1.90;;
20283;SDS011;10301;50.832;4.080;2023-02-01T13:11:28;9.17;;;1.90;;
20283;SDS011;10301;50.832;4.080;2023-02-01T13:16:42;10.57;;;1.87;;
20283;SDS011;10301;50.832;4.080;2023-02-01T13:19:24;17.83;;;1.80;;
20283;SDS011;10301;50.832;4.080;2023-02-01T13:22:15;10.53;;;2.20;;
20283;SDS011;10301;50.832;4.080;2023-02-01T13:25:03;11.17;;;1.90;;
20283;SDS011;10301;50.832;4.080;2023-02-01T13:27:36;15.33;;;2.93;;
20283;SDS011;10301;50.832;4.080;2023-02-01T13:30:10;10.47;;;1.77;;
20283;SDS011;10301;50.832;4.080;2023-02-01T13:40:50;18.87;;;2.20;;
20283;SDS011;10301;50.832;4.080;2023-02-01T13:43:28;13.13;;;2.20;;
20283;SDS011;10301;50.832;4.080;2023-02-01T13:45:57;14.00;;;2.20;;
20283;SDS011;10301;50.832;4.080;2023-02-01T13:48:33;14.90;;;2.90;;
20283;SDS011;10301;50.832;4.080;2023-02-01T13:51:05;7.60;;;1.90;;
20283;SDS011;10301;50.832;4.080;2023-02-01T13:53:32;13.25;;;2.50;;
20283;SDS011;10301;50.832;4.080;2023-02-01T14:06:44;13.43;;;2.78;;
20283;SDS011;10301;50.832;4.080;2023-02-01T14:09:15;11.23;;;1.85;;
20283;SDS011;10301;50.832;4.080;2023-02-01T14:11:45;9.18;;;1.52;;
20283;SDS011;10301;50.832;4.080;2023-02-01T14:16:42;9.38;;;2.17;;
20283;SDS011;10301;50.832;4.080;2023-02-01T14:19:19;12.70;;;2.33;;
20283;SDS011;10301;50.832;4.080;2023-02-01T14:24:26;12.02;;;2.33;;
20283;SDS011;10301;50.832;4.080;2023-02-01T14:26:58;22.25;;;2.90;;
20283;SDS011;10301;50.832;4.080;2023-02-01T14:29:42;11.23;;;1.70;;
20283;SDS011;10301;50.832;4.080;2023-02-01T14:40:05;13.77;;;2.60;;
20283;SDS011;10301;50.832;4.080;2023-02-01T14:42:51;11.32;;;2.17;;
20283;SDS011;10301;50.832;4.080;2023-02-01T14:47:47;10.25;;;3.03;;
20283;SDS011;10301;50.832;4.080;2023-02-01T14:55:50;15.63;;;2.80;;
20283;SDS011;10301;50.832;4.080;2023-02-01T15:01:21;11.90;;;2.20;;
20283;SDS011;10301;50.832;4.080;2023-02-01T15:06:27;13.70;;;2.67;;
20283;SDS011;10301;50.832;4.080;2023-02-01T15:08:59;16.00;;;2.80;;
20283;SDS011;10301;50.832;4.080;2023-02-01T15:11:32;12.37;;;2.17;;
20283;SDS011;10301;50.832;4.080;2023-02-01T15:14:23;19.83;;;2.30;;
20283;SDS011;10301;50.832;4.080;2023-02-01T15:16:49;18.43;;;3.10;;
20283;SDS011;10301;50.832;4.080;2023-02-01T15:19:19;12.83;;;2.87;;
20283;SDS011;10301;50.832;4.080;2023-02-01T15:21:50;15.13;;;2.63;;
20283;SDS011;10301;50.832;4.080;2023-02-01T15:24:24;14.97;;;2.87;;
20283;SDS011;10301;50.832;4.080;2023-02-01T15:26:55;12.87;;;2.57;;
20283;SDS011;10301;50.832;4.080;2023-02-01T15:29:26;14.37;;;2.70;;
20283;SDS011;10301;50.832;4.080;2023-02-01T15:31:57;16.20;;;2.37;;
20283;SDS011;10301;50.832;4.080;2023-02-01T15:34:23;15.70;;;2.77;;
20283;SDS011;10301;50.832;4.080;2023-02-01T15:37:12;17.50;;;3.40;;
20283;SDS011;10301;50.832;4.080;2023-02-01T15:40:02;10.50;;;2.40;;
20283;SDS011;10301;50.832;4.080;2023-02-01T15:42:35;15.40;;;2.60;;
20283;SDS011;10301;50.832;4.080;2023-02-01T15:45:15;17.60;;;3.00;;
20283;SDS011;10301;50.832;4.080;2023-02-01T15:47:49;17.90;;;3.60;;
20283;SDS011;10301;50.832;4.080;2023-02-01T15:50:17;11.73;;;3.40;;
20283;SDS011;10301;50.832;4.080;2023-02-01T15:52:45;13.57;;;2.80;;
20283;SDS011;10301;50.832;4.080;2023-02-01T15:58:35;22.30;;;3.13;;
20283;SDS011;10301;50.832;4.080;2023-02-01T16:00:58;15.23;;;2.63;;
20283;SDS011;10301;50.832;4.080;2023-02-01T16:03:35;11.67;;;3.00;;
20283;SDS011;10301;50.832;4.080;2023-02-01T16:06:08;17.57;;;3.37;;
20283;SDS011;10301;50.832;4.080;2023-02-01T16:08:56;17.07;;;2.80;;
20283;SDS011;10301;50.832;4.080;2023-02-01T16:11:41;16.77;;;3.50;;
20283;SDS011;10301;50.832;4.080;2023-02-01T16:14:14;19.90;;;3.50;;
20283;SDS011;10301;50.832;4.080;2023-02-01T16:16:40;19.20;;;2.63;;
20283;SDS011;10301;50.832;4.080;2023-02-01T16:19:05;18.87;;;3.83;;
20283;SDS011;10301;50.832;4.080;2023-02-01T16:21:31;17.97;;;2.37;;
20283;SDS011;10301;50.832;4.080;2023-02-01T16:23:57;12.07;;;2.83;;
20283;SDS011;10301;50.832;4.080;2023-02-01T16:26:24;12.70;;;2.47;;
20283;SDS011;10301;50.832;4.080;2023-02-01T16:28:50;17.10;;;3.60;;
20283;SDS011;10301;50.832;4.080;2023-02-01T16:31:16;15.93;;;3.43;;
20283;SDS011;10301;50.832;4.080;2023-02-01T16:33:51;15.43;;;3.47;;
20283;SDS011;10301;50.832;4.080;2023-02-01T16:36:17;16.50;;;3.30;;
20283;SDS011;10301;50.832;4.080;2023-02-01T16:38:43;20.70;;;3.90;;
20283;SDS011;10301;50.832;4.080;2023-02-01T16:41:12;19.40;;;3.40;;
20283;SDS011;10301;50.832;4.080;2023-02-01T16:43:39;15.70;;;3.00;;
20283;SDS011;10301;50.832;4.080;2023-02-01T16:46:05;22.83;;;4.20;;
20283;SDS011;10301;50.832;4.080;2023-02-01T16:48:35;18.40;;;3.73;;
20283;SDS011;10301;50.832;4.080;2023-02-01T16:51:03;15.80;;;3.80;;
20283;SDS011;10301;50.832;4.080;2023-02-01T16:53:33;18.33;;;3.57;;
20283;SDS011;10301;50.832;4.080;2023-02-01T16:55:59;15.50;;;3.73;;
20283;SDS011;10301;50.832;4.080;2023-02-01T16:58:25;16.00;;;4.40;;
20283;SDS011;10301;50.832;4.080;2023-02-01T17:00:52;20.07;;;3.77;;
20283;SDS011;10301;50.832;4.080;2023-02-01T17:03:18;15.43;;;3.13;;
20283;SDS011;10301;50.832;4.080;2023-02-01T17:05:47;13.13;;;3.30;;
20283;SDS011;10301;50.832;4.080;2023-02-01T17:08:16;17.83;;;3.37;;
20283;SDS011;10301;50.832;4.080;2023-02-01T17:10:45;19.73;;;3.30;;
20283;SDS011;10301;50.832;4.080;2023-02-01T17:13:14;16.43;;;3.97;;
20283;SDS011;10301;50.832;4.080;2023-02-01T17:15:43;21.47;;;3.53;;
20283;SDS011;10301;50.832;4.080;2023-02-01T17:18:14;16.87;;;2.90;;
20283;SDS011;10301;50.832;4.080;2023-02-01T17:20:42;21.77;;;3.77;;
20283;SDS011;10301;50.832;4.080;2023-02-01T17:23:08;20.13;;;4.67;;
20283;SDS011;10301;50.832;4.080;2023-02-01T17:25:34;17.80;;;4.10;;
20283;SDS011;10301;50.832;4.080;2023-02-01T17:27:59;18.47;;;4.03;;
20283;SDS011;10301;50.832;4.080;2023-02-01T17:30:25;18.50;;;3.23;;
20283;SDS011;10301;50.832;4.080;2023-02-01T17:32:51;20.33;;;4.00;;
20283;SDS011;10301;50.832;4.080;2023-02-01T17:35:18;15.47;;;3.87;;
20283;SDS011;10301;50.832;4.080;2023-02-01T17:37:47;24.63;;;4.70;;
20283;SDS011;10301;50.832;4.080;2023-02-01T17:40:13;17.13;;;3.93;;